Time;durP1;ratioP1;P1;durP2;ratioP2;P2;SDS_P1;SDS_P2;PMS_P1;PMS_P2;Temp;Humidity;BMP_temperature;BMP_pressure;BME280_temperature;BME280_humidity;BME280_pressure;Samples;Min_cycle;Max_cycle;Signal;HPM_P1;HPM_P2
2022/03/29 00:00:19;;;;;;;48.15;32.90;;;;;;;7.35;84.48;101634.13;7384449;19;20364;-58
2022/03/29 00:02:48;;;;;;;49.78;33.03;;;;;;;7.53;83.69;101640.78;7388409;19;20030;-58
2022/03/29 00:05:19;;;;;;;49.28;32.40;;;;;;;7.48;83.45;101643.47;7394002;19;20025;-60
2022/03/29 00:07:48;;;;;;;45.63;32.47;;;;;;;7.41;83.55;101642.72;7394048;19;20014;-57
2022/03/29 00:10:17;;;;;;;45.65;31.42;;;;;;;7.41;83.24;101639.25;7390856;19;20600;-59
2022/03/29 00:12:46;;;;;;;49.47;33.45;;;;;;;7.00;84.98;101638.22;7393310;19;20021;-59
2022/03/29 00:15:15;;;;;;;50.90;33.03;;;;;;;7.04;85.14;101632.06;7390951;19;20015;-60
2022/03/29 00:17:44;;;;;;;51.08;33.05;;;;;;;7.11;84.92;101628.47;7393045;19;20017;-54
2022/03/29 00:20:13;;;;;;;56.45;34.55;;;;;;;7.02;85.05;101626.00;7390589;19;20019;-59
2022/03/29 00:22:46;;;;;;;51.47;35.28;;;;;;;6.81;85.97;101628.09;7393545;19;20021;-59
2022/03/29 00:25:15;;;;;;;52.70;34.70;;;;;;;6.75;86.85;101620.38;7393166;19;20034;-59
2022/03/29 00:27:45;;;;;;;51.97;33.53;;;;;;;6.85;86.45;101618.47;7393363;19;20007;-56
2022/03/29 00:30:16;;;;;;;54.42;35.15;;;;;;;6.91;86.19;101618.38;7390673;19;20014;-61
2022/03/29 00:32:46;;;;;;;54.17;35.53;;;;;;;6.68;87.03;101618.75;7392750;19;20014;-62
2022/03/29 00:35:15;;;;;;;57.40;35.83;;;;;;;6.62;87.87;101616.22;7390160;19;20010;-61
2022/03/29 00:37:47;;;;;;;60.78;36.13;;;;;;;6.67;87.51;101615.25;7392523;19;20010;-62
2022/03/29 00:40:19;;;;;;;56.55;36.40;;;;;;;6.52;87.99;101608.56;7390694;19;20006;-61
2022/03/29 00:42:48;;;;;;;57.83;36.42;;;;;;;6.55;88.65;101607.66;7393264;19;20032;-58
2022/03/29 00:45:17;;;;;;;59.67;37.17;;;;;;;6.58;88.40;101605.00;7392272;19;20022;-62
2022/03/29 00:47:46;;;;;;;56.90;35.78;;;;;;;6.82;87.65;101605.50;7392143;19;20026;-61
2022/03/29 00:50:14;;;;;;;58.60;36.72;;;;;;;6.89;86.85;101614.94;7389987;19;20018;-61
2022/03/29 00:52:46;;;;;;;59.80;36.80;;;;;;;6.51;88.67;101599.00;7392574;19;20126;-62
2022/03/29 00:55:17;;;;;;;60.85;36.53;;;;;;;6.70;88.48;101606.53;7390103;19;20029;-61
2022/03/29 00:57:49;;;;;;;57.35;35.78;;;;;;;6.58;88.25;101602.41;7392425;19;20015;-62
2022/03/29 01:00:19;;;;;;;58.63;36.40;;;;;;;6.49;89.05;101600.78;7390232;19;20121;-60
2022/03/29 01:02:48;;;;;;;59.70;37.03;;;;;;;6.70;88.63;101604.78;7391879;19;20019;-61
2022/03/29 01:05:17;;;;;;;63.50;39.28;;;;;;;6.68;88.53;101605.72;7392765;19;20014;-60
2022/03/29 01:07:48;;;;;;;58.83;37.08;;;;;;;6.62;88.94;101604.06;7391476;19;20018;-61
2022/03/29 01:10:17;;;;;;;57.70;38.35;;;;;;;6.74;88.05;101601.25;7390293;19;20424;-64
2022/03/29 01:12:46;;;;;;;59.10;37.05;;;;;;;6.70;88.18;101591.78;7391644;19;20033;-60
2022/03/29 01:15:16;;;;;;;60.40;38.28;;;;;;;6.73;88.28;101593.47;7389677;19;20104;-60
2022/03/29 01:17:43;;;;;;;60.92;37.80;;;;;;;6.66;88.82;101597.06;7392101;19;20014;-61
2022/03/29 01:20:16;;;;;;;61.30;38.50;;;;;;;6.55;88.79;101590.28;7389962;19;20021;-60
2022/03/29 01:22:49;;;;;;;61.67;38.35;;;;;;;6.48;89.52;101582.59;7391199;19;20389;-60
2022/03/29 01:25:20;;;;;;;61.67;38.58;;;;;;;6.58;89.53;101579.81;7391341;19;20349;-63
2022/03/29 01:27:51;;;;;;;58.25;36.00;;;;;;;6.78;88.30;101585.56;7391025;19;20025;-59
2022/03/29 01:30:22;;;;;;;61.40;36.83;;;;;;;6.80;87.63;101584.69;7389213;19;20006;-59
2022/03/29 01:32:52;;;;;;;60.55;36.92;;;;;;;6.71;88.55;101579.63;7390970;19;20019;-60
2022/03/29 01:35:23;;;;;;;62.78;37.60;;;;;;;6.74;88.29;101574.38;7389113;19;20392;-60
2022/03/29 01:37:56;;;;;;;62.80;38.97;;;;;;;6.69;88.10;101577.06;7390351;19;20476;-59
2022/03/29 01:40:26;;;;;;;;;;;;;;;6.61;89.01;101572.84;7391305;19;20104;-58
2022/03/29 01:42:57;;;;;;;59.40;35.63;;;;;;;6.64;89.01;101578.84;7390582;19;19933;-61
2022/03/29 01:45:28;;;;;;;59.63;36.20;;;;;;;6.50;89.57;101565.19;7389720;19;20022;-61
2022/03/29 01:47:57;;;;;;;64.15;39.13;;;;;;;6.39;90.12;101567.94;7390215;19;20614;-61
2022/03/29 01:50:26;;;;;;;61.60;37.15;;;;;;;6.36;90.53;101561.06;7387953;19;20022;-61
2022/03/29 01:52:58;;;;;;;67.90;39.47;;;;;;;6.30;90.77;101558.53;7390110;19;20337;-61
2022/03/29 01:55:27;;;;;;;64.57;39.63;;;;;;;6.27;91.49;101561.19;7389174;19;20014;-62
2022/03/29 01:57:56;;;;;;;64.75;40.25;;;;;;;6.27;91.53;101552.53;7390115;19;20499;-61
2022/03/29 02:00:34;;;;;;;74.80;43.05;;;;;;;6.05;92.51;101547.63;7386898;19;20009;-61
2022/03/29 02:03:05;;;;;;;66.28;39.78;;;;;;;6.24;92.06;101549.06;7390275;19;20014;-61
2022/03/29 02:05:34;;;;;;;65.55;39.72;;;;;;;6.28;91.38;101552.50;7389370;19;20018;-61
2022/03/29 02:08:07;;;;;;;62.70;38.13;;;;;;;6.17;92.50;101542.22;7390321;19;20520;-59
2022/03/29 02:10:36;;;;;;;67.35;39.80;;;;;;;6.18;92.05;101535.31;7388373;19;20078;-58
2022/03/29 02:13:05;;;;;;;61.67;39.03;;;;;;;6.34;92.23;101542.00;7389603;19;20021;-61
2022/03/29 02:15:33;;;;;;;65.43;38.58;;;;;;;6.50;90.85;101536.56;7385010;19;20025;-60
2022/03/29 02:18:02;;;;;;;68.70;39.83;;;;;;;6.12;92.63;101525.84;7383397;19;20010;-60
2022/03/29 02:20:31;;;;;;;63.90;39.00;;;;;;;6.37;91.99;101530.69;7383892;19;20361;-61
2022/03/29 02:23:06;;;;;;;63.88;39.63;;;;;;;6.46;91.30;101529.66;7389190;19;20014;-60
2022/03/29 02:25:35;;;;;;;62.38;37.83;;;;;;;6.54;90.55;101522.59;7388208;19;20006;-59
2022/03/29 02:28:05;;;;;;;61.17;38.35;;;;;;;6.43;91.35;101520.16;7389076;19;20021;-57
2022/03/29 02:30:35;;;;;;;68.72;39.83;;;;;;;6.31;91.08;101517.75;7387142;19;20111;-61
2022/03/29 02:33:05;;;;;;;62.08;37.08;;;;;;;6.08;92.98;101516.34;7389521;19;20100;-59
2022/03/29 02:35:34;;;;;;;63.63;38.67;;;;;;;6.04;93.40;101506.88;7388473;19;20014;-58
2022/03/29 02:38:06;;;;;;;59.72;37.45;;;;;;;6.06;93.31;101507.69;7389130;19;20018;-55
2022/03/29 02:40:35;;;;;;;63.90;37.17;;;;;;;5.93;93.40;101501.81;7390164;19;20085;-62
2022/03/29 02:43:04;;;;;;;59.55;36.10;;;;;;;6.05;93.52;101500.78;7388261;19;20242;-62
2022/03/29 02:45:33;;;;;;;64.45;37.88;;;;;;;5.92;93.93;101499.19;7389165;19;20042;-60
2022/03/29 02:48:02;;;;;;;59.72;36.17;;;;;;;6.05;93.83;101493.00;7388339;19;20031;-59
2022/03/29 02:50:30;;;;;;;58.60;35.75;;;;;;;6.13;93.12;101493.75;7386770;19;20018;-61
2022/03/29 02:53:02;;;;;;;58.17;35.30;;;;;;;6.06;93.33;101492.97;7388228;19;20011;-60
2022/03/29 02:55:35;;;;;;;59.95;36.10;;;;;;;6.13;93.10;101485.94;7386256;19;20049;-61
2022/03/29 02:58:04;;;;;;;55.35;33.50;;;;;;;6.14;92.86;101485.03;7388172;19;20017;-60
2022/03/29 03:00:33;;;;;;;55.85;32.53;;;;;;;6.09;93.25;101478.19;7386840;19;20010;-62
2022/03/29 03:03:03;;;;;;;56.45;34.47;;;;;;;5.96;93.38;101486.16;7387718;19;20022;-62
2022/03/29 03:05:32;;;;;;;60.75;35.65;;;;;;;5.78;95.25;101476.00;7387398;19;20014;-60
2022/03/29 03:08:02;;;;;;;57.03;34.53;;;;;;;5.88;94.64;101468.03;7387876;19;20017;-61
2022/03/29 03:10:33;;;;;;;62.95;36.10;;;;;;;5.84;95.13;101466.34;7385664;19;20022;-63
2022/03/29 03:13:02;;;;;;;60.03;35.45;;;;;;;5.93;94.76;101460.19;7388306;19;20006;-62
2022/03/29 03:15:32;;;;;;;65.90;35.95;;;;;;;5.83;94.33;101463.78;7386788;19;20011;-59
2022/03/29 03:18:01;;;;;;;59.83;34.20;;;;;;;5.68;95.17;101457.91;7387358;19;20015;-60
2022/03/29 03:20:30;;;;;;;63.22;35.15;;;;;;;5.62;95.82;101447.59;7385579;19;20108;-60
2022/03/29 03:22:59;;;;;;;55.65;32.53;;;;;;;5.82;95.89;101444.72;7387908;19;20015;-62
2022/03/29 03:25:28;;;;;;;67.07;36.72;;;;;;;5.71;95.63;101447.47;7387791;19;20361;-61
2022/03/29 03:27:59;;;;;;;58.05;33.67;;;;;;;5.66;96.14;101453.59;7388364;19;20108;-61
2022/03/29 03:30:33;;;;;;;68.25;34.70;;;;;;;5.65;96.57;101454.50;7385627;19;20074;-61
2022/03/29 03:33:02;;;;;;;61.47;33.92;;;;;;;5.60;96.55;101456.28;7388166;19;20090;-60
2022/03/29 03:35:31;;;;;;;63.85;34.55;;;;;;;5.61;96.31;101455.44;7387057;19;20018;-60
2022/03/29 03:37:59;;;;;;;63.88;36.45;;;;;;;5.70;96.07;101460.47;7390474;19;20015;-61
2022/03/29 03:40:28;;;;;;;60.20;34.20;;;;;;;5.71;96.32;101449.22;7393474;19;20018;-61
2022/03/29 03:43:00;;;;;;;57.97;32.55;;;;;;;5.70;96.07;101450.09;7401057;19;20106;-63
2022/03/29 03:45:29;;;;;;;67.03;34.38;;;;;;;5.59;96.85;101449.38;7399692;19;20014;-60
2022/03/29 03:47:58;;;;;;;59.55;33.83;;;;;;;5.65;96.81;101439.75;7398424;19;20011;-61
2022/03/29 03:50:27;;;;;;;63.25;35.17;;;;;;;5.62;97.22;101437.19;7395743;19;20029;-61
2022/03/29 03:52:56;;;;;;;62.45;34.83;;;;;;;5.76;96.78;101437.03;7397650;19;20009;-57
2022/03/29 03:55:25;;;;;;;66.78;35.97;;;;;;;5.69;96.75;101445.78;7393597;19;20011;-60
2022/03/29 03:57:54;;;;;;;62.10;35.72;;;;;;;5.86;96.97;101440.31;7394108;19;20068;-59
2022/03/29 04:00:25;;;;;;;61.80;35.42;;;;;;;5.87;96.22;101440.31;7390302;19;20025;-59
2022/03/29 04:02:54;;;;;;;68.97;35.70;;;;;;;5.93;95.88;101438.50;7395556;19;20015;-59
2022/03/29 04:05:25;;;;;;;60.70;34.67;;;;;;;5.92;95.91;101419.44;7395768;19;20023;-59
2022/03/29 04:07:54;;;;;;;59.55;34.42;;;;;;;6.06;95.82;101419.25;7394945;19;20015;-61
2022/03/29 04:10:23;;;;;;;60.33;34.20;;;;;;;6.01;95.48;101413.28;7392308;19;20201;-61
2022/03/29 04:12:52;;;;;;;60.80;35.35;;;;;;;6.05;95.94;101413.19;7420301;19;20037;-54
2022/03/29 04:15:21;;;;;;;59.15;33.25;;;;;;;6.05;95.49;101412.34;7394767;19;20014;-62
2022/03/29 04:17:52;;;;;;;64.07;35.15;;;;;;;5.92;96.04;101406.44;7395181;19;20023;-60
2022/03/29 04:20:21;;;;;;;63.78;36.20;;;;;;;6.04;96.22;101414.06;7392789;19;20030;-62
2022/03/29 04:22:50;;;;;;;66.07;36.63;;;;;;;5.85;96.25;101412.63;7394038;19;20018;-61
2022/03/29 04:25:19;;;;;;;60.58;34.83;;;;;;;6.03;96.68;101411.50;7394306;19;20015;-62
2022/03/29 04:27:48;;;;;;;64.43;36.00;;;;;;;6.03;96.00;101407.16;7394530;19;20011;-62
2022/03/29 04:30:17;;;;;;;64.45;34.92;;;;;;;6.01;96.01;101403.72;7392103;19;20015;-62
2022/03/29 04:32:46;;;;;;;67.85;36.05;;;;;;;5.87;96.60;101403.91;7394618;19;20022;-62
2022/03/29 04:35:17;;;;;;;72.35;38.60;;;;;;;5.88;97.61;101402.16;7393386;19;20011;-61
2022/03/29 04:37:46;;;;;;;74.18;37.92;;;;;;;5.97;97.69;101401.16;7394078;19;20090;-61
2022/03/29 04:40:15;;;;;;;68.20;38.55;;;;;;;6.19;96.90;101404.28;7391596;19;20515;-60
2022/03/29 04:42:46;;;;;;;72.43;36.08;;;;;;;6.21;95.62;101395.56;7393720;19;20021;-60
2022/03/29 04:45:15;;;;;;;70.03;36.42;;;;;;;6.26;95.39;101398.13;7393814;19;20018;-61
2022/03/29 04:47:45;;;;;;;66.00;37.00;;;;;;;6.10;96.23;101394.91;7393435;19;20014;-61
2022/03/29 04:50:17;;;;;;;85.65;38.67;;;;;;;5.96;96.68;101392.50;7390306;19;20365;-60
2022/03/29 04:52:47;;;;;;;75.40;38.72;;;;;;;5.89;97.56;101396.09;7393508;19;20014;-61
2022/03/29 04:55:17;;;;;;;68.78;37.17;;;;;;;5.92;98.44;101389.94;7392151;19;20015;-61
2022/03/29 04:57:49;;;;;;;69.85;36.47;;;;;;;6.04;97.98;101390.66;7392221;19;20018;-60
2022/03/29 05:00:20;;;;;;;71.43;38.28;;;;;;;6.00;97.89;101396.81;7390761;19;20014;-61
2022/03/29 05:02:50;;;;;;;70.38;37.58;;;;;;;6.06;97.45;101394.09;7392105;19;20257;-62
2022/03/29 05:05:22;;;;;;;69.70;38.35;;;;;;;6.12;97.15;101395.75;7392806;19;20113;-61
2022/03/29 05:07:51;;;;;;;74.53;37.22;;;;;;;5.81;98.02;101385.78;7392600;19;20010;-61
2022/03/29 05:10:20;;;;;;;67.28;36.88;;;;;;;5.82;98.95;101384.91;7390339;19;20025;-60
2022/03/29 05:12:51;;;;;;;68.53;36.42;;;;;;;5.80;98.40;101386.69;7391754;19;20014;-61
2022/03/29 05:15:22;;;;;;;112.72;39.70;;;;;;;5.72;98.68;101383.34;7392286;19;20018;-61
2022/03/29 05:17:51;;;;;;;76.97;38.88;;;;;;;5.63;100.00;101378.25;7391986;19;20025;-58
2022/03/29 05:20:24;;;;;;;85.85;39.70;;;;;;;5.71;100.00;101382.47;7389532;19;20126;-62
2022/03/29 05:22:55;;;;;;;;;;;;;;;5.82;100.00;101386.66;7392814;19;20010;-60
2022/03/29 05:25:25;;;;;;;70.95;37.00;;;;;;;6.01;99.73;101380.28;7391628;19;19927;-61
2022/03/29 05:27:57;;;;;;;81.00;37.33;;;;;;;5.89;98.23;101381.31;7391625;19;20006;-62
2022/03/29 05:30:26;;;;;;;64.95;35.00;;;;;;;5.91;98.56;101380.44;7389856;19;20022;-60
2022/03/29 05:32:57;;;;;;;66.93;36.55;;;;;;;5.98;97.90;101380.34;7391309;19;20014;-61
2022/03/29 05:35:30;;;;;;;64.65;35.60;;;;;;;5.99;98.51;101376.88;7390596;19;20018;-61
2022/03/29 05:38:00;;;;;;;87.72;37.90;;;;;;;5.98;98.13;101376.91;7391995;19;20487;-58
2022/03/29 05:40:30;;;;;;;70.15;36.35;;;;;;;6.10;97.47;101383.63;7389609;19;20428;-62
2022/03/29 05:42:58;;;;;;;83.15;37.78;;;;;;;6.00;97.57;101381.19;7392129;19;20022;-60
2022/03/29 05:45:28;;;;;;;67.10;36.47;;;;;;;5.91;98.72;101375.25;7391021;19;20018;-59
2022/03/29 05:50:42;;;;;;;71.10;35.38;;;;;;;5.76;99.33;101373.72;7388804;19;20022;-62
2022/03/29 05:53:11;;;;;;;71.63;36.72;;;;;;;5.75;99.92;101388.47;7392395;19;20010;-61
2022/03/29 05:55:40;;;;;;;71.43;36.55;;;;;;;5.79;100.00;101371.97;7390532;19;20360;-63
2022/03/29 05:58:09;;;;;;;72.93;37.05;;;;;;;5.83;99.78;101373.63;7391053;19;20014;-62
2022/03/29 06:00:38;;;;;;;72.20;37.83;;;;;;;5.96;99.42;101376.91;7386959;19;20015;-60
2022/03/29 06:03:07;;;;;;;71.88;35.53;;;;;;;5.99;99.19;101374.28;7392135;19;20156;-60
2022/03/29 06:05:36;;;;;;;69.40;35.72;;;;;;;6.03;99.27;101388.06;7392147;19;20006;-60
2022/03/29 06:08:08;;;;;;;68.10;34.92;;;;;;;6.09;98.58;101381.91;7401028;19;20046;-57
2022/03/29 06:10:37;;;;;;;68.20;36.88;;;;;;;6.10;98.16;101379.28;7407778;19;20018;-59
2022/03/29 06:13:08;;;;;;;73.03;36.80;;;;;;;6.04;98.44;101380.25;7391576;19;20037;-61
2022/03/29 06:15:38;;;;;;;71.47;37.10;;;;;;;6.29;98.43;101390.25;7389877;19;20063;-60
2022/03/29 06:18:07;;;;;;;75.10;37.88;;;;;;;6.22;97.61;101381.69;7390869;19;20025;-60
2022/03/29 06:20:36;;;;;;;69.78;36.95;;;;;;;6.13;97.93;101379.25;7388995;19;20014;-61
2022/03/29 06:23:08;;;;;;;80.97;37.65;;;;;;;6.07;98.00;101379.34;7391147;19;20372;-57
2022/03/29 06:25:37;;;;;;;75.53;37.37;;;;;;;5.98;99.09;101377.75;7391009;19;20087;-60
2022/03/29 06:28:06;;;;;;;66.40;35.80;;;;;;;5.98;98.68;101380.34;7391309;19;20274;-59
2022/03/29 06:30:35;;;;;;;67.60;35.90;;;;;;;6.01;98.96;101369.88;7389197;19;20451;-58
2022/03/29 06:33:04;;;;;;;78.30;38.05;;;;;;;5.87;98.86;101377.91;7391222;19;20017;-60
2022/03/29 06:35:35;;;;;;;84.68;38.95;;;;;;;5.93;99.88;101376.06;7391149;19;20384;-60
2022/03/29 06:38:04;;;;;;;73.85;38.13;;;;;;;6.08;99.47;101385.41;7390980;19;20014;-59
2022/03/29 06:40:37;;;;;;;68.22;36.50;;;;;;;6.15;97.76;101377.47;7390767;19;20033;-61
2022/03/29 06:43:06;;;;;;;73.03;36.22;;;;;;;6.11;96.81;101377.56;7390462;19;20015;-62
2022/03/29 06:45:35;;;;;;;71.18;36.78;;;;;;;5.99;96.95;101379.47;7390498;19;20014;-61
2022/03/29 06:48:04;;;;;;;64.10;34.25;;;;;;;5.83;97.71;101376.22;7391321;19;20006;-61
2022/03/29 06:50:35;;;;;;;66.38;35.05;;;;;;;5.90;97.54;101376.97;7387710;19;20014;-62
2022/03/29 06:53:06;;;;;;;67.93;34.17;;;;;;;5.83;97.07;101375.34;7390037;19;20018;-62
2022/03/29 06:55:38;;;;;;;63.75;34.50;;;;;;;5.70;97.62;101380.75;7389751;19;20018;-60
2022/03/29 06:58:07;;;;;;;62.30;32.72;;;;;;;5.76;97.62;101382.41;7390992;19;20544;-62
2022/03/29 07:00:36;;;;;;;61.33;31.40;;;;;;;5.80;97.41;101380.59;7388040;19;20019;-61
2022/03/29 07:03:05;;;;;;;59.10;30.55;;;;;;;5.82;96.19;101378.84;7390510;19;20021;-63
2022/03/29 07:05:36;;;;;;;53.50;30.13;;;;;;;5.87;95.95;101382.22;7388157;19;20025;-61
2022/03/29 07:08:05;;;;;;;64.80;33.33;;;;;;;6.00;95.47;101375.13;7390123;19;20017;-63
2022/03/29 07:13:18;;;;;;;59.78;32.15;;;;;;;5.96;94.78;101378.63;7383963;19;20018;-59
2022/03/29 07:15:50;;;;;;;58.35;33.05;;;;;;;5.85;94.68;101384.84;7387300;19;20029;-61
2022/03/29 07:18:19;;;;;;;63.10;34.03;;;;;;;5.87;95.42;101384.81;7390157;19;20035;-67
2022/03/29 07:20:48;;;;;;;59.47;31.40;;;;;;;5.82;95.04;101384.06;7386317;19;20528;-61
2022/03/29 07:23:17;;;;;;;59.63;33.20;;;;;;;5.80;95.15;101388.41;7390094;19;20006;-61
2022/03/29 07:25:46;;;;;;;60.95;32.60;;;;;;;5.75;94.48;101391.09;7394529;19;20357;-60
2022/03/29 07:28:17;;;;;;;59.22;31.80;;;;;;;5.72;95.15;101391.97;7390176;19;20014;-60
2022/03/29 07:30:46;;;;;;;65.80;31.60;;;;;;;5.99;93.98;101399.41;7387514;19;20022;-60
2022/03/29 07:33:17;;;;;;;59.75;32.47;;;;;;;6.00;92.57;101388.13;7365624;19;20018;-61
2022/03/29 07:35:47;;;;;;;64.35;34.17;;;;;;;5.89;92.65;101394.34;7389547;19;20430;-61
2022/03/29 07:38:16;;;;;;;57.50;32.42;;;;;;;5.96;92.73;101402.03;7389019;19;20007;-61
2022/03/29 07:40:46;;;;;;;61.15;33.85;;;;;;;6.04;92.18;101395.84;7388854;19;20018;-60
2022/03/29 07:43:18;;;;;;;60.60;33.80;;;;;;;5.87;91.64;101390.91;7389240;19;20512;-61
2022/03/29 07:45:46;;;;;;;69.15;34.50;;;;;;;5.87;92.81;101393.50;7389087;19;20027;-56
2022/03/29 07:48:15;;;;;;;70.13;35.28;;;;;;;6.09;91.96;101380.19;7389115;19;20036;-59
2022/03/29 07:50:44;;;;;;;91.57;35.50;;;;;;;6.17;90.68;101388.69;7386506;19;20464;-62
2022/03/29 07:53:13;;;;;;;64.80;33.67;;;;;;;6.22;89.68;101388.66;7388313;19;20011;-61
2022/03/29 07:55:42;;;;;;;59.30;32.58;;;;;;;6.01;90.41;101380.28;7388437;19;20012;-60
2022/03/29 07:58:12;;;;;;;68.35;34.22;;;;;;;5.98;90.81;101390.75;7388054;19;20018;-60
2022/03/29 08:00:44;;;;;;;74.38;34.35;;;;;;;6.03;90.53;101385.47;7386615;19;20023;-59
2022/03/29 08:03:15;;;;;;;59.50;33.85;;;;;;;6.00;90.02;101385.53;7389165;19;20082;-58
2022/03/29 08:05:45;;;;;;;67.60;34.92;;;;;;;5.91;90.79;101388.25;7398890;19;20014;-59
2022/03/29 08:08:16;;;;;;;65.18;34.25;;;;;;;6.05;90.45;101387.16;7403622;19;20021;-61
2022/03/29 08:10:46;;;;;;;64.53;36.05;;;;;;;6.13;90.33;101388.78;7386491;19;20443;-61
2022/03/29 08:13:16;;;;;;;64.72;35.88;;;;;;;6.16;89.94;101389.63;7388541;19;20018;-59
2022/03/29 08:15:50;;;;;;;65.70;35.65;;;;;;;6.05;89.38;101386.31;7387456;19;20055;-59
2022/03/29 08:18:19;;;;;;;61.72;33.72;;;;;;;6.02;89.93;101389.81;7388102;19;20488;-60
2022/03/29 08:20:48;;;;;;;64.80;34.92;;;;;;;6.02;89.19;101392.44;7384677;19;20456;-61
2022/03/29 08:23:17;;;;;;;64.63;34.65;;;;;;;5.96;88.98;101389.03;7388839;19;20015;-59
2022/03/29 08:25:46;;;;;;;61.85;33.95;;;;;;;6.21;88.61;101387.78;7394185;19;20019;-60
2022/03/29 08:28:19;;;;;;;58.15;32.97;;;;;;;6.11;88.23;101385.38;7395182;19;20018;-61
2022/03/29 08:30:50;;;;;;;64.40;34.95;;;;;;;6.16;88.52;101375.72;7392483;19;20018;-60
2022/03/29 08:33:20;;;;;;;64.78;34.45;;;;;;;6.18;88.08;101377.41;7394852;19;20374;-60
2022/03/29 08:35:49;;;;;;;67.20;34.42;;;;;;;6.29;87.90;101368.56;7394899;19;20010;-61
2022/03/29 08:38:18;;;;;;;64.20;35.13;;;;;;;6.36;86.71;101362.34;7393799;19;20029;-59
2022/03/29 08:40:47;;;;;;;72.18;36.40;;;;;;;6.43;86.87;101368.31;7394702;19;20023;-61
2022/03/29 08:43:17;;;;;;;67.40;35.78;;;;;;;6.55;86.31;101362.91;7394298;19;20021;-61
2022/03/29 08:45:52;;;;;;;64.57;36.15;;;;;;;6.53;85.82;101357.72;7394985;19;20019;-61
2022/03/29 08:48:24;;;;;;;72.65;37.63;;;;;;;6.47;85.87;101355.22;7394725;19;20021;-61
2022/03/29 08:50:54;;;;;;;63.65;35.53;;;;;;;6.64;86.18;101346.25;7394466;19;20006;-57
2022/03/29 08:53:24;;;;;;;69.13;35.13;;;;;;;6.65;84.49;101348.81;7394791;19;20010;-60
2022/03/29 08:55:53;;;;;;;65.28;35.53;;;;;;;6.49;84.85;101345.66;7394258;19;20336;-61
2022/03/29 08:58:24;;;;;;;73.82;37.65;;;;;;;6.40;85.13;101351.00;7392032;19;20015;-60
2022/03/29 09:00:55;;;;;;;66.80;35.97;;;;;;;6.61;84.84;101341.94;7395394;19;20014;-62
2022/03/29 09:03:24;;;;;;;65.82;35.53;;;;;;;6.75;84.20;101346.91;7395484;19;20007;-62
2022/03/29 09:06:07;;;;;;;66.38;37.33;;;;;;;6.71;84.86;101333.06;7395912;19;20014;-62
2022/03/29 09:08:47;;;;;;;71.07;36.92;;;;;;;6.71;84.70;101347.84;7394847;19;20015;-62
2022/03/29 09:11:16;;;;;;;66.32;35.88;;;;;;;6.71;83.86;101333.06;7395753;19;20030;-62
2022/03/29 09:13:46;;;;;;;61.30;33.75;;;;;;;6.85;83.63;101334.50;7393066;19;20347;-62
2022/03/29 09:16:36;;;;;;;66.10;36.25;;;;;;;6.76;82.69;101330.34;7395517;19;20035;-62
2022/03/29 09:19:05;;;;;;;65.28;34.58;;;;;;;6.70;83.03;101330.50;7396615;19;20025;-62
2022/03/29 09:21:43;;;;;;;63.10;33.60;;;;;;;6.74;82.46;101330.38;7401647;19;20324;-62
2022/03/29 09:24:14;;;;;;;63.38;34.42;;;;;;;6.95;82.41;101320.44;7399315;19;20022;-61
2022/03/29 09:26:45;;;;;;;63.42;35.60;;;;;;;7.10;80.64;101324.44;7401490;19;20373;-62
2022/03/29 09:29:16;;;;;;;62.92;34.90;;;;;;;6.96;81.09;101323.88;7398249;19;20144;-61
2022/03/29 09:31:49;;;;;;;59.95;33.72;;;;;;;6.96;80.33;101336.91;7399933;19;20021;-60
2022/03/29 09:34:20;;;;;;;73.65;35.15;;;;;;;6.89;80.23;101338.78;7394876;19;20018;-64
2022/03/29 09:36:51;;;;;;;65.05;35.10;;;;;;;6.73;80.89;101336.50;7394010;19;20030;-61
2022/03/29 09:39:39;;;;;;;64.30;34.10;;;;;;;6.74;81.05;101340.81;7392909;19;20081;-61
2022/03/29 09:42:12;;;;;;;67.43;35.17;;;;;;;7.07;80.17;101335.78;7394085;19;20007;-61
2022/03/29 09:44:48;;;;;;;63.13;33.53;;;;;;;7.31;79.65;101333.56;7391783;19;20444;-61
2022/03/29 09:47:23;;;;;;;66.30;34.83;;;;;;;7.53;78.51;101333.91;7393187;19;20070;-63
2022/03/29 09:49:55;;;;;;;59.58;34.35;;;;;;;7.63;77.32;101330.19;7391610;19;20019;-61
2022/03/29 09:52:26;;;;;;;60.40;33.53;;;;;;;7.62;76.92;101335.44;7393313;19;20097;-60
2022/03/29 09:55:16;;;;;;;61.53;33.08;;;;;;;7.76;76.41;101324.69;7393174;19;20239;-60
2022/03/29 09:57:47;;;;;;;58.47;33.08;;;;;;;7.78;76.12;101322.91;7394684;19;20339;-62
2022/03/29 10:00:19;;;;;;;60.33;33.90;;;;;;;8.00;75.64;101325.81;7393021;19;20025;-58
2022/03/29 10:02:51;;;;;;;62.23;34.03;;;;;;;8.27;74.93;101313.81;7413222;19;20086;-60
2022/03/29 10:05:21;;;;;;;60.53;34.10;;;;;;;8.23;73.80;101317.38;7399665;19;20018;-62
2022/03/29 10:09:25;;;;;;;65.60;36.33;;;;;;;8.26;74.73;101312.09;7393370;19;20107;-59
2022/03/29 10:10:49;;;;;;;64.53;33.88;;;;;;;8.08;74.87;101304.75;7390960;19;20018;-62
2022/03/29 10:13:23;;;;;;;61.97;33.67;;;;;;;8.42;74.85;101304.69;7392979;19;20021;-60
2022/03/29 10:15:53;;;;;;;63.45;35.58;;;;;;;8.36;73.53;101297.03;7393174;19;20558;-61
2022/03/29 10:18:27;;;;;;;61.45;35.35;;;;;;;8.28;73.96;101299.88;7390966;19;20017;-59
2022/03/29 10:20:58;;;;;;;59.25;34.28;;;;;;;8.52;73.89;101296.66;7392536;19;20021;-61
2022/03/29 10:23:29;;;;;;;61.00;35.30;;;;;;;8.76;72.68;101300.31;7392583;19;20019;-61
2022/03/29 10:25:59;;;;;;;55.75;34.40;;;;;;;9.02;71.17;101296.94;7392378;19;20011;-61
2022/03/29 10:28:28;;;;;;;63.22;34.05;;;;;;;9.25;70.02;101301.44;7391852;19;20034;-59
2022/03/29 10:30:58;;;;;;;60.03;34.15;;;;;;;9.43;70.40;101302.66;7392539;19;20010;-57
2022/03/29 10:33:31;;;;;;;60.28;35.33;;;;;;;9.30;69.44;101296.09;7393189;19;20021;-61
2022/03/29 10:36:09;;;;;;;61.05;34.10;;;;;;;9.66;68.67;101303.66;7392950;19;20022;-59
2022/03/29 10:38:57;;;;;;;58.28;33.92;;;;;;;9.65;68.53;101299.34;7392463;19;20011;-60
2022/03/29 10:41:51;;;;;;;66.20;33.30;;;;;;;10.05;67.14;101287.53;7392136;19;20014;-61
2022/03/29 10:44:20;;;;;;;64.65;33.42;;;;;;;10.13;67.17;101279.38;7391162;19;20040;-59
2022/03/29 10:46:50;;;;;;;61.63;33.63;;;;;;;10.44;65.86;101284.44;7391111;19;20029;-62
2022/03/29 10:49:28;;;;;;;64.35;36.15;;;;;;;10.36;65.51;101291.72;7392154;19;20404;-58
2022/03/29 10:51:59;;;;;;;60.17;35.28;;;;;;;10.47;65.14;101283.47;7394917;19;20010;-61
2022/03/29 10:54:31;;;;;;;59.42;34.13;;;;;;;10.72;64.72;101286.91;7370558;19;20131;-62
2022/03/29 10:57:03;;;;;;;54.53;34.47;;;;;;;10.50;64.32;101285.97;7391567;19;20014;-61
2022/03/29 10:59:32;;;;;;;57.33;35.00;;;;;;;10.13;65.73;101284.63;7391415;19;20019;-62
2022/03/29 11:02:18;;;;;;;60.47;35.33;;;;;;;10.48;65.31;101277.31;7394505;19;20010;-61
2022/03/29 11:05:08;;;;;;;59.10;35.15;;;;;;;10.62;64.90;101279.44;7391663;19;20471;-63
2022/03/29 11:07:39;;;;;;;63.15;35.20;;;;;;;10.08;65.84;101269.09;7392437;19;20463;-59
2022/03/29 11:10:13;;;;;;;63.00;36.22;;;;;;;10.39;65.45;101263.63;7389750;19;20033;-61
2022/03/29 11:12:46;;;;;;;61.45;36.42;;;;;;;10.33;65.02;101276.06;7389605;19;20053;-60
2022/03/29 11:15:47;;;;;;;59.10;34.80;;;;;;;10.62;64.77;101275.03;7391896;19;20501;-62
2022/03/29 11:18:38;;;;;;;64.63;36.17;;;;;;;10.69;63.62;101263.41;7390418;19;20405;-61
2022/03/29 11:21:10;;;;;;;61.35;36.05;;;;;;;10.71;63.70;101258.97;7391955;19;20011;-61
2022/03/29 11:23:41;;;;;;;61.92;37.35;;;;;;;10.95;62.63;101256.31;7391405;19;20375;-61
2022/03/29 11:26:12;;;;;;;61.17;36.92;;;;;;;11.23;63.07;101250.84;7391469;19;20011;-60
2022/03/29 11:28:50;;;;;;;59.30;37.05;;;;;;;11.22;63.09;101254.38;7390676;19;20014;-63
2022/03/29 11:31:20;;;;;;;61.85;36.35;;;;;;;10.93;63.12;101246.81;7391293;19;20022;-63
2022/03/29 11:33:52;;;;;;;56.42;35.95;;;;;;;11.00;63.05;101250.91;7390611;19;20018;-61
2022/03/29 11:36:23;;;;;;;61.40;35.47;;;;;;;11.45;61.70;101234.25;7390900;19;20022;-60
2022/03/29 11:38:53;;;;;;;54.53;35.13;;;;;;;11.15;61.54;101229.31;7387984;19;20403;-62